Terminal Aerodrome Forecast
Issued by NWS

Home | Current Version | Previous Version | Graphics & Text | Print | Product List | Glossary On
Versions: 1 2 3 4 5 6 7 8 9 10 11 12 13 14 15 16 17 18 19 20 21 22 23 24 25
000
FTUS43 KBIS 030639 AAB
TAFJMS
TAF AMD
KJMS 030639Z 0307/0406 14012KT 4SM BR BKN007
      TEMPO 0307/0310 2SM BR OVC006
     FM031000 14010KT 3SM BR OVC005
      TEMPO 0310/0314 1SM BR OVC004
     FM031500 15012KT 5SM BR SCT012
     FM031800 17016KT P6SM SKC
     FM040300 15010KT P6SM SCT080=

USA.gov is the U.S. government's official web portal to all federal, state and local government web resources and services.